Time;durP1;ratioP1;P1;durP2;ratioP2;P2;SDS_P1;SDS_P2;PMS_P1;PMS_P2;Temp;Humidity;BMP_temperature;BMP_pressure;BME280_temperature;BME280_humidity;BME280_pressure;Samples;Min_cycle;Max_cycle;Signal;HPM_P1;HPM_P2
2021/12/16 00:11:08;;;;;;;17.52;14.57;;;;;;;8.41;77.35;101936.19;10229406;28;20062;-62
2021/12/16 00:37:20;;;;;;;16.10;13.68;;;;;;;8.37;78.04;101928.44;10229125;28;20156;-61
2021/12/16 00:47:57;;;;;;;14.40;12.40;;;;;;;8.43;78.10;101941.41;10232721;28;20043;-62
2021/12/16 00:58:28;;;;;;;;;;;;;;;8.39;78.04;101950.44;10227655;28;20043;-61
2021/12/16 01:51:50;;;;;;;17.33;13.53;;;;;;;8.29;77.65;101960.59;10206865;28;20058;-60
2021/12/16 01:57:05;;;;;;;14.13;11.40;;;;;;;8.08;77.99;101939.38;10224536;28;20131;-61
2021/12/16 02:02:28;;;;;;;12.48;11.05;;;;;;;8.14;78.59;101943.56;10224534;28;20158;-60
2021/12/16 02:29:07;;;;;;;12.57;11.25;;;;;;;8.17;77.90;101953.16;10218385;28;20429;-61
2021/12/16 02:39:32;;;;;;;16.50;12.68;;;;;;;8.25;77.62;101948.41;10231951;28;20119;-62
2021/12/16 02:49:54;;;;;;;16.38;12.02;;;;;;;8.29;77.38;101950.00;10231483;28;20051;-60
2021/12/16 02:54:55;;;;;;;15.32;12.00;;;;;;;8.24;77.49;101938.72;10232460;28;20220;-61
2021/12/16 02:59:57;;;;;;;14.23;12.20;;;;;;;8.41;76.74;101945.94;10230088;28;20122;-61
2021/12/16 03:04:58;;;;;;;13.45;11.85;;;;;;;8.22;76.72;101943.22;10229685;28;20569;-61
2021/12/16 03:15:23;;;;;;;14.05;12.50;;;;;;;8.41;76.81;101956.56;10232581;28;20142;-61
2021/12/16 03:20:45;;;;;;;13.98;12.48;;;;;;;8.37;76.47;101950.50;10238812;28;20137;-62
2021/12/16 03:41:26;;;;;;;13.95;12.07;;;;;;;8.13;76.91;101947.13;10227483;28;20051;-63
2021/12/16 03:46:33;;;;;;;15.40;12.75;;;;;;;8.05;76.26;101949.28;10227635;28;20049;-61
2021/12/16 03:51:45;;;;;;;15.30;11.90;;;;;;;8.03;76.91;101956.41;10229553;28;20126;-62
2021/12/16 03:56:47;;;;;;;13.98;12.48;;;;;;;8.05;76.79;101955.44;10228447;28;20051;-61
2021/12/16 04:01:49;;;;;;;14.52;12.60;;;;;;;8.16;76.56;101954.97;10229154;28;20067;-61
2021/12/16 04:06:51;;;;;;;14.07;12.23;;;;;;;8.23;76.76;101974.16;10227441;28;20492;-62
2021/12/16 04:12:07;;;;;;;14.15;12.23;;;;;;;8.28;76.27;101956.22;10228015;28;20071;-61
2021/12/16 04:17:11;;;;;;;14.18;12.13;;;;;;;8.47;75.73;101978.41;10226934;28;20074;-61
2021/12/16 04:22:17;;;;;;;15.73;13.15;;;;;;;8.52;75.52;101969.38;10228719;28;20206;-65
2021/12/16 04:27:18;;;;;;;14.45;12.73;;;;;;;8.48;75.49;101974.81;10228815;28;20057;-61
2021/12/16 04:32:20;;;;;;;15.43;13.27;;;;;;;8.49;75.49;101970.38;10228740;28;20222;-62
2021/12/16 04:37:22;;;;;;;15.85;13.80;;;;;;;8.44;75.70;101975.88;10241585;28;20432;-61
2021/12/16 04:42:26;;;;;;;13.50;12.07;;;;;;;8.43;75.67;101982.06;10227082;28;20537;-60
2021/12/16 04:47:29;;;;;;;14.45;12.80;;;;;;;8.52;75.16;101985.31;10227696;28;20074;-61
2021/12/16 04:52:31;;;;;;;13.82;12.35;;;;;;;8.46;75.33;101986.44;10242292;28;20046;-61
2021/12/16 04:57:33;;;;;;;16.20;13.52;;;;;;;8.41;75.35;101989.25;10226959;28;20646;-61
2021/12/16 05:02:35;;;;;;;15.60;13.85;;;;;;;8.42;75.41;101991.00;10226547;28;20471;-60
2021/12/16 05:07:36;;;;;;;16.15;14.45;;;;;;;8.36;75.52;101983.28;10226513;28;20047;-61
2021/12/16 05:12:46;;;;;;;17.67;13.70;;;;;;;8.46;75.30;102007.66;10227123;28;20066;-62
2021/12/16 05:17:51;;;;;;;17.05;13.57;;;;;;;8.37;75.53;101998.28;10225877;28;20160;-59
2021/12/16 05:28:17;;;;;;;15.73;14.05;;;;;;;8.29;75.88;102005.72;10226025;28;20043;-61
2021/12/16 05:33:21;;;;;;;16.08;13.88;;;;;;;8.30;75.89;102007.41;10226214;28;20130;-60
2021/12/16 05:38:24;;;;;;;15.52;13.93;;;;;;;8.40;75.68;102019.38;10225367;28;20455;-61
2021/12/16 05:43:28;;;;;;;15.38;13.30;;;;;;;8.22;75.40;101986.53;10227171;28;20047;-61
2021/12/16 05:48:33;;;;;;;15.02;12.73;;;;;;;8.35;75.39;102021.38;10231005;28;20465;-61
2021/12/16 05:53:35;;;;;;;14.85;13.18;;;;;;;8.37;75.41;102013.34;10210917;28;20575;-61
2021/12/16 05:58:37;;;;;;;14.98;13.43;;;;;;;8.35;75.66;102009.88;10225774;28;20051;-62
2021/12/16 06:03:39;;;;;;;14.95;13.30;;;;;;;8.35;75.31;102026.66;10224688;28;20051;-61
2021/12/16 06:08:43;;;;;;;16.85;14.68;;;;;;;8.29;75.62;102027.78;10213611;28;20057;-62
2021/12/16 06:14:15;;;;;;;15.60;13.07;;;;;;;8.44;75.67;102039.56;10224850;28;20051;-62
2021/12/16 06:29:58;;;;;;;25.98;14.60;;;;;;;8.47;75.16;102036.78;10218417;28;20043;-62
2021/12/16 06:35:00;;;;;;;18.08;15.52;;;;;;;8.47;75.46;102042.09;10217155;28;20062;-61
2021/12/16 06:40:04;;;;;;;17.20;13.80;;;;;;;8.57;75.51;102049.66;10216830;28;20163;-61
2021/12/16 06:45:11;;;;;;;16.40;14.47;;;;;;;8.49;75.16;102061.47;10215673;28;20050;-62
2021/12/16 06:50:25;;;;;;;18.65;14.32;;;;;;;8.39;75.42;102062.78;10212381;28;20057;-62
2021/12/16 07:00:46;;;;;;;15.93;13.97;;;;;;;8.19;76.09;102068.03;10215519;28;20126;-67
2021/12/16 07:05:53;;;;;;;17.48;14.38;;;;;;;8.35;76.60;102079.75;10209263;28;20209;-64
2021/12/16 07:10:56;;;;;;;15.25;13.52;;;;;;;8.34;76.21;102083.31;10226694;28;20142;-61
2021/12/16 07:15:59;;;;;;;15.35;13.60;;;;;;;8.49;75.59;102106.56;10217832;28;20051;-59
2021/12/16 07:21:01;;;;;;;16.13;14.45;;;;;;;8.49;75.39;102113.69;10215293;28;20054;-60
2021/12/16 07:26:02;;;;;;;15.10;13.60;;;;;;;8.51;75.54;102117.13;10225997;28;20422;-59
2021/12/16 07:31:04;;;;;;;17.80;14.20;;;;;;;8.46;75.53;102129.75;10216187;28;20510;-59
2021/12/16 07:36:05;;;;;;;17.45;15.60;;;;;;;8.27;75.57;102103.94;10216215;28;20282;-61
2021/12/16 07:41:07;;;;;;;16.10;14.40;;;;;;;8.42;75.67;102128.09;10214864;28;20142;-60
2021/12/16 07:46:10;;;;;;;16.17;13.63;;;;;;;8.26;75.74;102120.78;10215131;28;20059;-58
2021/12/16 07:51:11;;;;;;;16.80;14.48;;;;;;;8.19;76.39;102137.03;10214309;28;20074;-63
2021/12/16 07:56:18;;;;;;;17.40;15.55;;;;;;;8.21;76.59;102137.81;10210996;28;20464;-64
2021/12/16 08:01:21;;;;;;;17.23;14.98;;;;;;;8.34;75.95;102143.50;10213382;28;20582;-63
2021/12/16 08:06:26;;;;;;;17.23;15.43;;;;;;;8.34;75.72;102149.66;10213224;28;21270;-61
2021/12/16 08:11:30;;;;;;;17.55;14.95;;;;;;;8.31;75.70;102145.31;10210882;28;20568;-62
2021/12/16 08:16:37;;;;;;;16.63;14.75;;;;;;;8.24;75.90;102137.69;10212940;28;20051;-61
2021/12/16 08:21:39;;;;;;;17.90;15.88;;;;;;;8.32;75.68;102155.03;10212483;28;20130;-60
2021/12/16 08:26:41;;;;;;;16.75;14.88;;;;;;;8.51;75.18;102161.41;10216502;28;20058;-60
2021/12/16 08:31:43;;;;;;;18.40;15.05;;;;;;;8.51;74.90;102166.72;10218507;28;20534;-59
2021/12/16 08:36:46;;;;;;;17.15;14.55;;;;;;;8.58;74.57;102171.69;10226799;28;20394;-60
2021/12/16 08:41:50;;;;;;;19.45;16.80;;;;;;;8.65;73.67;102173.16;10213484;28;20811;-60
2021/12/16 08:46:57;;;;;;;17.25;14.65;;;;;;;8.72;73.91;102179.09;10261374;23;20050;-64
2021/12/16 08:52:04;;;;;;;17.27;14.77;;;;;;;8.84;74.14;102197.16;10250070;28;20527;-66
2021/12/16 08:57:06;;;;;;;17.60;15.80;;;;;;;8.90;73.90;102196.03;10237239;28;20571;-65
2021/12/16 09:02:07;;;;;;;18.15;14.80;;;;;;;8.96;73.90;102213.50;10226148;28;20073;-65
2021/12/16 09:07:10;;;;;;;18.75;14.60;;;;;;;9.16;73.45;102205.53;10214481;28;20073;-63
2021/12/16 09:17:32;;;;;;;15.98;14.05;;;;;;;9.46;72.27;102202.47;10235330;28;20043;-64
2021/12/16 09:22:34;;;;;;;21.45;18.40;;;;;;;9.47;71.73;102212.19;10247663;28;20517;-64
2021/12/16 09:27:36;;;;;;;19.65;16.60;;;;;;;9.26;72.07;102224.59;10242379;28;20070;-64
2021/12/16 09:32:38;;;;;;;20.00;15.48;;;;;;;9.29;72.11;102231.56;10222339;28;20065;-64
2021/12/16 09:37:40;;;;;;;17.95;15.65;;;;;;;9.79;70.94;102241.78;10240166;28;20051;-64
2021/12/16 09:42:42;;;;;;;17.38;14.77;;;;;;;10.15;69.14;102235.69;10233786;28;20043;-65
2021/12/16 09:47:45;;;;;;;19.65;16.10;;;;;;;10.05;68.74;102240.56;10235410;28;20153;-64
2021/12/16 09:52:47;;;;;;;17.75;15.00;;;;;;;9.90;69.88;102238.63;10217946;28;20043;-64
2021/12/16 09:57:49;;;;;;;20.58;15.52;;;;;;;10.04;69.24;102243.28;10231155;28;20170;-65
2021/12/16 10:02:53;;;;;;;20.10;16.50;;;;;;;10.27;68.84;102243.06;10233494;28;20739;-64
2021/12/16 10:07:54;;;;;;;20.80;16.10;;;;;;;10.29;68.43;102247.47;10240696;28;20059;-65
2021/12/16 10:13:00;;;;;;;17.80;15.02;;;;;;;10.15;68.32;102237.47;10242759;28;20109;-63
2021/12/16 10:18:01;;;;;;;17.27;15.45;;;;;;;10.19;68.85;102245.25;10239509;28;20089;-63
2021/12/16 10:23:09;;;;;;;17.60;15.07;;;;;;;9.97;69.11;102237.41;10245266;28;20039;-63
2021/12/16 10:28:23;;;;;;;18.88;16.42;;;;;;;9.89;69.24;102232.44;10240130;28;20544;-64
2021/12/16 10:33:30;;;;;;;17.58;14.23;;;;;;;9.85;70.06;102225.53;10243536;28;20486;-63
2021/12/16 10:38:36;;;;;;;18.10;16.20;;;;;;;9.83;70.42;102219.44;10243402;28;20406;-64
2021/12/16 10:43:50;;;;;;;17.98;15.40;;;;;;;9.83;70.65;102215.88;10238044;28;20629;-64
2021/12/16 10:49:03;;;;;;;18.92;16.92;;;;;;;9.74;70.63;102211.84;10233207;28;20065;-64
2021/12/16 10:54:15;;;;;;;20.55;16.17;;;;;;;9.70;70.89;102220.91;10239989;28;20050;-64
2021/12/16 10:59:18;;;;;;;15.80;14.07;;;;;;;9.79;71.32;102219.59;10236778;28;20387;-64
2021/12/16 11:04:41;;;;;;;19.40;16.08;;;;;;;9.79;70.76;102212.50;10230991;28;20062;-64
2021/12/16 11:09:49;;;;;;;17.77;14.45;;;;;;;9.71;71.40;102219.97;10235520;28;21415;-64
2021/12/16 11:14:59;;;;;;;16.45;14.45;;;;;;;9.84;71.27;102218.47;10239508;28;20046;-65
2021/12/16 11:20:22;;;;;;;19.65;15.27;;;;;;;9.90;70.82;102207.53;10225925;28;20452;-64
2021/12/16 11:25:32;;;;;;;19.55;15.68;;;;;;;9.93;70.69;102205.69;10235126;28;20061;-63
2021/12/16 11:30:36;;;;;;;17.95;15.20;;;;;;;10.05;70.72;102211.28;10222566;28;20047;-64
2021/12/16 11:35:45;;;;;;;18.27;15.67;;;;;;;10.07;70.62;102204.09;10236089;28;20614;-64
2021/12/16 11:41:07;;;;;;;19.33;15.77;;;;;;;10.12;69.92;102213.66;10225751;28;20042;-64
2021/12/16 11:46:27;;;;;;;21.13;16.52;;;;;;;10.14;70.27;102207.31;10229962;28;20051;-64
2021/12/16 11:51:56;;;;;;;17.40;15.65;;;;;;;10.11;70.12;102210.13;10236235;28;20042;-65
2021/12/16 11:57:33;;;;;;;18.08;15.23;;;;;;;10.22;70.25;102210.50;10236509;28;20046;-64
2021/12/16 12:02:41;;;;;;;19.05;17.05;;;;;;;10.26;69.91;102208.53;10230620;28;20113;-63
2021/12/16 12:07:49;;;;;;;18.33;15.63;;;;;;;10.33;69.53;102210.00;10230279;28;20192;-64
2021/12/16 12:12:50;;;;;;;20.13;16.17;;;;;;;10.34;70.06;102210.88;10210556;28;20560;-64
2021/12/16 12:17:55;;;;;;;19.85;16.98;;;;;;;10.34;69.81;102202.88;10237438;28;20141;-63
2021/12/16 12:22:58;;;;;;;23.58;16.58;;;;;;;10.36;69.91;102193.03;10231446;28;20047;-63
2021/12/16 12:27:59;;;;;;;18.65;16.35;;;;;;;10.31;70.14;102192.34;10238715;28;20047;-64
2021/12/16 12:33:01;;;;;;;19.85;16.98;;;;;;;10.24;70.15;102176.69;10229291;28;20049;-66
2021/12/16 12:38:02;;;;;;;20.45;17.90;;;;;;;10.32;70.01;102194.09;10231543;28;20090;-64
2021/12/16 12:43:09;;;;;;;21.38;18.05;;;;;;;10.23;70.45;102182.06;10215122;28;20225;-64
2021/12/16 12:48:19;;;;;;;18.80;16.08;;;;;;;10.34;69.93;102189.56;10221873;28;20138;-65
2021/12/16 12:53:26;;;;;;;22.92;16.05;;;;;;;10.50;69.78;102190.53;10224909;28;20043;-65
2021/12/16 12:58:33;;;;;;;19.92;16.42;;;;;;;10.60;69.55;102191.81;10229160;28;20120;-65
2021/12/16 13:03:38;;;;;;;18.27;16.08;;;;;;;10.66;68.70;102193.31;10227735;28;20050;-65
2021/12/16 13:08:43;;;;;;;17.23;15.23;;;;;;;10.63;69.21;102195.25;10231123;28;20053;-64
2021/12/16 13:14:18;;;;;;;16.58;14.48;;;;;;;10.60;69.35;102196.28;10232323;28;20053;-64
2021/12/16 13:26:03;;;;;;;17.60;14.57;;;;;;;10.55;69.91;102192.97;10226912;28;20056;-64
2021/12/16 13:30:30;;;;;;;23.10;14.57;;;;;;;10.41;70.04;102180.34;10212233;28;20055;-64
2021/12/16 13:35:37;;;;;;;17.88;15.70;;;;;;;10.53;70.15;102200.19;10232461;28;20549;-65
2021/12/16 13:40:41;;;;;;;19.67;15.75;;;;;;;10.52;70.26;102199.31;10208214;28;20552;-64
2021/12/16 14:08:05;;;;;;;18.52;14.73;;;;;;;10.44;70.48;102233.44;10232846;28;20043;-65
2021/12/16 14:40:15;;;;;;;15.90;13.80;;;;;;;10.44;70.96;102242.28;10238547;28;20138;-63
2021/12/16 14:45:36;;;;;;;16.67;14.85;;;;;;;10.38;70.91;102233.75;10238101;28;20042;-65
2021/12/16 14:50:40;;;;;;;16.95;13.73;;;;;;;10.37;71.07;102242.66;10240781;28;20055;-63
2021/12/16 14:55:42;;;;;;;19.75;14.20;;;;;;;10.39;71.26;102240.81;10235801;28;20813;-63
2021/12/16 15:00:52;;;;;;;18.08;14.13;;;;;;;10.38;71.18;102245.25;10233823;28;20137;-63
2021/12/16 15:05:57;;;;;;;18.55;14.10;;;;;;;10.44;71.01;102244.94;10234806;28;20051;-66
2021/12/16 15:11:02;;;;;;;16.17;14.07;;;;;;;10.41;71.05;102225.59;10229588;28;20797;-65
2021/12/16 15:16:24;;;;;;;15.70;13.65;;;;;;;10.44;71.16;102244.09;10226818;28;20047;-62
2021/12/16 15:42:54;;;;;;;22.05;15.95;;;;;;;10.41;71.09;102250.44;10231976;28;20038;-63
2021/12/16 15:48:04;;;;;;;18.33;14.55;;;;;;;10.36;71.24;102246.28;10231959;28;20081;-63
2021/12/16 15:53:12;;;;;;;17.08;14.70;;;;;;;10.34;71.01;102237.50;10234975;28;20390;-64
2021/12/16 15:58:21;;;;;;;17.20;13.63;;;;;;;10.33;71.02;102241.97;10230070;28;20135;-64
2021/12/16 16:03:24;;;;;;;16.35;13.38;;;;;;;10.30;71.18;102241.19;10233962;28;21707;-63
2021/12/16 16:08:29;;;;;;;17.85;14.00;;;;;;;10.29;71.48;102223.50;10237647;28;20059;-63
2021/12/16 16:13:37;;;;;;;18.95;13.75;;;;;;;10.35;71.42;102244.53;10233112;28;20062;-64
2021/12/16 16:18:41;;;;;;;18.10;14.35;;;;;;;10.33;71.17;102247.28;10237129;28;21269;-64
2021/12/16 16:23:52;;;;;;;18.30;14.55;;;;;;;10.32;71.22;102248.19;10226348;28;20054;-65
2021/12/16 16:29:19;;;;;;;24.88;14.18;;;;;;;10.37;71.31;102251.53;10221682;28;20079;-64
2021/12/16 16:34:25;;;;;;;18.95;14.48;;;;;;;10.34;71.31;102246.31;10237723;28;20043;-64
2021/12/16 16:39:31;;;;;;;19.38;14.82;;;;;;;10.40;71.26;102250.50;10231982;28;20141;-63
2021/12/16 16:44:33;;;;;;;19.10;14.98;;;;;;;10.42;70.69;102256.63;10240175;28;20065;-64
2021/12/16 16:49:58;;;;;;;18.83;15.05;;;;;;;10.45;71.22;102243.16;10231512;28;20054;-63
2021/12/16 16:55:10;;;;;;;16.73;14.02;;;;;;;10.44;71.32;102244.09;10236463;28;20050;-63
2021/12/16 17:00:13;;;;;;;22.55;15.35;;;;;;;10.41;71.23;102245.09;10235951;28;20191;-64
2021/12/16 17:05:39;;;;;;;23.40;16.33;;;;;;;10.46;71.07;102257.34;10235533;28;20042;-64
2021/12/16 17:10:54;;;;;;;18.20;15.77;;;;;;;10.46;71.22;102252.88;10228966;28;20055;-64
2021/12/16 17:21:10;;;;;;;20.23;16.25;;;;;;;10.43;71.39;102258.34;10227624;28;20059;-64
2021/12/16 17:26:24;;;;;;;21.42;15.50;;;;;;;10.44;71.61;102260.94;10212549;28;20047;-64
2021/12/16 17:32:09;;;;;;;20.67;16.03;;;;;;;10.52;71.29;102268.53;10229732;28;20059;-66
2021/12/16 17:37:19;;;;;;;19.83;16.90;;;;;;;10.50;71.22;102267.75;10216156;28;20071;-62
2021/12/16 17:42:37;;;;;;;22.80;16.52;;;;;;;10.51;71.27;102285.47;10226235;28;20490;-64
2021/12/16 17:47:40;;;;;;;21.52;15.82;;;;;;;10.48;71.27;102288.28;10223905;28;20053;-64
2021/12/16 17:52:48;;;;;;;20.38;15.52;;;;;;;10.47;71.25;102291.88;10226781;28;20051;-64
2021/12/16 17:57:55;;;;;;;22.40;15.98;;;;;;;10.47;71.38;102277.72;10235338;28;20035;-64
2021/12/16 18:02:57;;;;;;;18.80;16.80;;;;;;;10.43;71.38;102287.63;10230318;28;20153;-65
2021/12/16 18:07:59;;;;;;;20.20;16.60;;;;;;;10.42;71.88;102289.44;10213865;28;20063;-65
2021/12/16 18:13:00;;;;;;;19.60;16.48;;;;;;;10.44;71.78;102305.34;10225789;28;20071;-65
2021/12/16 18:18:09;;;;;;;23.60;20.58;;;;;;;10.46;71.79;102303.44;10216656;28;20064;-65
2021/12/16 18:23:16;;;;;;;19.85;16.60;;;;;;;10.45;71.60;102299.09;10233128;28;20195;-65
2021/12/16 18:28:29;;;;;;;19.77;16.15;;;;;;;10.48;71.54;102308.69;10207942;28;20825;-65
2021/12/16 18:33:35;;;;;;;19.25;16.17;;;;;;;10.47;71.63;102315.84;10223638;28;20047;-64
2021/12/16 18:39:09;;;;;;;18.98;15.88;;;;;;;10.54;71.96;102303.97;10233656;28;20405;-66
2021/12/16 18:44:22;;;;;;;28.90;22.92;;;;;;;10.51;71.65;102312.09;10197180;28;20046;-64
2021/12/16 18:49:31;;;;;;;20.02;17.48;;;;;;;10.51;71.51;102325.41;10236409;28;20498;-63
2021/12/16 18:54:35;;;;;;;19.67;16.70;;;;;;;10.46;71.72;102331.88;10234751;28;20050;-64
2021/12/16 18:59:37;;;;;;;19.52;17.25;;;;;;;10.47;71.71;102342.47;10228784;28;20046;-65
2021/12/16 19:04:43;;;;;;;19.52;15.90;;;;;;;10.43;71.83;102356.84;10226351;28;20190;-65
2021/12/16 19:09:47;;;;;;;19.65;16.48;;;;;;;10.43;72.00;102351.53;10231934;28;20403;-65
2021/12/16 19:15:05;;;;;;;20.60;16.95;;;;;;;10.36;72.49;102358.09;10231378;28;20134;-64
2021/12/16 19:20:15;;;;;;;19.00;17.00;;;;;;;10.36;72.42;102348.28;10232537;28;21532;-65
2021/12/16 19:25:16;;;;;;;22.20;17.58;;;;;;;10.38;72.87;102357.06;10232702;28;20051;-64
2021/12/16 19:30:23;;;;;;;17.92;16.08;;;;;;;10.38;72.57;102366.88;10227334;28;20043;-65
2021/12/16 19:35:30;;;;;;;18.55;16.50;;;;;;;10.35;72.66;102372.31;10224797;28;20591;-65
2021/12/16 19:40:32;;;;;;;22.27;15.18;;;;;;;10.36;72.55;102374.06;10216948;28;20421;-64
2021/12/16 19:45:41;;;;;;;19.17;17.13;;;;;;;10.37;72.45;102379.31;10208695;28;20081;-64
2021/12/16 19:51:05;;;;;;;19.67;15.95;;;;;;;10.38;72.57;102377.50;10195151;28;20047;-64
2021/12/16 19:56:08;;;;;;;18.70;16.13;;;;;;;10.34;72.82;102386.56;10216799;28;20157;-63
2021/12/16 20:01:15;;;;;;;23.17;17.80;;;;;;;10.36;72.85;102398.03;10234353;28;20047;-64
2021/12/16 20:06:19;;;;;;;20.75;16.52;;;;;;;10.36;72.89;102384.72;10234872;28;20166;-65
2021/12/16 20:11:26;;;;;;;18.05;16.15;;;;;;;10.32;73.18;102383.94;10214593;28;20416;-65
2021/12/16 20:16:35;;;;;;;18.52;15.82;;;;;;;10.27;73.16;102378.81;10225691;28;20165;-66
2021/12/16 20:21:44;;;;;;;19.35;15.73;;;;;;;10.31;73.03;102384.88;10227366;28;20416;-64
2021/12/16 20:27:18;;;;;;;18.45;15.68;;;;;;;10.33;73.04;102375.06;10230949;28;20069;-67
2021/12/16 20:32:24;;;;;;;21.55;16.33;;;;;;;10.34;73.01;102381.25;10178159;28;20102;-66
2021/12/16 20:37:28;;;;;;;18.80;15.93;;;;;;;10.36;72.99;102379.38;10226531;28;20126;-65
2021/12/16 20:42:34;;;;;;;17.48;15.60;;;;;;;10.36;73.06;102380.25;10237847;28;20059;-66
2021/12/16 20:47:35;;;;;;;24.70;18.27;;;;;;;10.31;73.21;102370.69;10242876;28;20155;-65
2021/12/16 20:52:55;;;;;;;18.55;16.52;;;;;;;10.32;73.44;102372.44;10227339;28;20051;-68
2021/12/16 20:58:01;;;;;;;18.77;16.60;;;;;;;10.25;73.65;102370.06;10216979;28;20047;-65
2021/12/16 21:03:06;;;;;;;19.45;16.10;;;;;;;10.26;73.98;102374.44;10226810;28;20043;-66
2021/12/16 21:08:08;;;;;;;21.23;18.20;;;;;;;10.21;74.21;102363.13;10235557;28;20051;-67
2021/12/16 21:13:10;;;;;;;18.77;16.55;;;;;;;10.29;74.46;102370.78;10225656;28;20170;-65
2021/12/16 21:18:14;;;;;;;20.20;17.20;;;;;;;10.32;74.27;102367.97;10233792;28;20062;-65
2021/12/16 21:23:16;;;;;;;19.10;17.10;;;;;;;10.29;74.46;102370.78;10233553;28;20046;-65
2021/12/16 21:28:22;;;;;;;21.17;17.20;;;;;;;10.23;74.62;102361.25;10231125;28;20077;-65
2021/12/16 21:33:27;;;;;;;24.40;19.83;;;;;;;10.26;74.85;102377.09;10237447;28;20131;-65
2021/12/16 21:38:31;;;;;;;20.73;18.27;;;;;;;10.24;74.88;102375.44;10236165;28;20717;-65
2021/12/16 21:43:35;;;;;;;19.80;17.33;;;;;;;10.17;75.92;102380.16;10229944;28;20055;-64
2021/12/16 21:48:38;;;;;;;21.75;19.00;;;;;;;10.17;75.59;102384.63;10228537;28;20126;-65
2021/12/16 21:53:40;;;;;;;22.17;17.73;;;;;;;10.19;75.63;102382.75;10219837;28;20062;-65
2021/12/16 21:58:44;;;;;;;20.52;18.38;;;;;;;10.22;75.40;102393.28;10235593;28;20045;-65
2021/12/16 22:03:52;;;;;;;20.95;17.80;;;;;;;10.16;75.84;102383.75;10236414;28;20047;-65
2021/12/16 22:08:55;;;;;;;20.25;17.88;;;;;;;10.12;76.28;102386.63;10237649;28;20038;-65
2021/12/16 22:13:59;;;;;;;19.93;17.83;;;;;;;10.13;76.48;102391.88;10220702;28;20852;-65
2021/12/16 22:19:01;;;;;;;22.80;18.90;;;;;;;10.12;76.50;102398.16;10221382;28;20142;-67
2021/12/16 22:24:03;;;;;;;23.08;20.50;;;;;;;10.12;76.55;102403.47;10231033;28;20051;-66
2021/12/16 22:29:06;;;;;;;22.75;20.27;;;;;;;10.09;76.93;102415.09;10230922;28;20122;-65
2021/12/16 22:34:10;;;;;;;24.42;21.77;;;;;;;10.05;77.34;102410.84;10230226;28;20066;-65
2021/12/16 22:39:12;;;;;;;24.95;20.17;;;;;;;10.04;77.63;102410.91;10229146;28;20082;-66
2021/12/16 22:44:14;;;;;;;21.75;19.35;;;;;;;10.00;77.70;102414.66;10212396;28;20047;-66
2021/12/16 22:49:16;;;;;;;21.85;19.52;;;;;;;9.98;78.11;102411.19;10230551;28;20051;-66
2021/12/16 22:54:18;;;;;;;22.13;19.52;;;;;;;9.95;78.22;102416.66;10214599;28;20059;-65
2021/12/16 22:59:20;;;;;;;22.80;20.15;;;;;;;9.93;78.56;102418.53;10215203;28;20051;-65
2021/12/16 23:04:22;;;;;;;22.45;20.02;;;;;;;9.90;78.76;102415.03;10216938;28;25692;-65
2021/12/16 23:09:23;;;;;;;25.63;21.95;;;;;;;9.81;79.08;102418.09;10228142;28;20101;-65
2021/12/16 23:14:25;;;;;;;22.60;19.95;;;;;;;9.79;79.38;102401.34;10236432;28;20043;-65
2021/12/16 23:25:10;;;;;;;22.17;18.98;;;;;;;9.81;80.04;102415.44;10227532;28;20544;-64
2021/12/16 23:30:13;;;;;;;21.27;18.92;;;;;;;9.83;79.77;102418.91;10228924;28;20059;-65
2021/12/16 23:35:15;;;;;;;21.10;18.60;;;;;;;9.82;79.84;102411.00;10230279;28;20130;-62
2021/12/16 23:40:20;;;;;;;27.55;20.77;;;;;;;9.80;79.65;102413.69;10228098;28;20133;-64
2021/12/16 23:55:53;;;;;;;20.02;16.73;;;;;;;9.83;80.12;102396.75;10216065;28;20135;-65
